Other Surface Observations
Issued by NWS Missoula, MT

Home | Current Version | Previous Version | Text Only | Print | Product List | Glossary On
Versions: 1 2 3 4 5 6 7 8 9 10 11 12 13 14 15 16 17 18 19 20 21 22 23 24 25 26 27 28 29 30 31 32 33 34 35 36 37 38 39 40 41 42 43 44 45 46 47 48 49 50
485
SXUS55 KMSO 270203
OSOMSO
MONTANA AWOS SUMMARY
NATIONAL WEATHER SERVICE MISSOULA MT
703 PM MST WED APR 26 2017

Montana AWOS Reports

LAUREL      |K6S8 270155Z AUTO 26019G23KT 5SM HZ 08/02 A2967 RMK AO1 T00830022
EKALAKA     |K97M 270155Z AUTO 09004KT 40SM 04/M04 A2971 RMK AO1 T00391038
ROUNDUP     |KRPX 270155Z AUTO 00000KT 40SM 07/03 A2959 RMK AO1 T00670033
SCOBEY      |K9S2 270155Z AUTO 10005KT 40SM 07/M07 A2974 RMK AO1 T00671066
PLAINS      |KS34 270155Z AUTO 00000KT 40SM 08/02 A2971 RMK AO1 T00830017
TWIN BRIDGES|K7S1 270155Z AUTO 04006KT 40SM 07/00 A2966 RMK AO1 T00720000




USA.gov is the U.S. government's official web portal to all federal, state and local government web resources and services.